createdAt,value
2018-01-13T00:01:30.124Z,24.10
2018-01-13T00:03:57.961Z,24.77
2018-01-13T00:06:25.660Z,23.10
2018-01-13T00:08:54.022Z,21.37
2018-01-13T00:11:21.628Z,21.33
2018-01-13T00:13:49.421Z,19.97
2018-01-13T00:16:17.034Z,21.30
2018-01-13T00:18:45.509Z,21.83
2018-01-13T00:21:13.983Z,22.40
2018-01-13T00:23:42.520Z,22.87
2018-01-13T00:26:10.132Z,22.20
2018-01-13T00:28:38.581Z,22.90
2018-01-13T00:31:07.379Z,22.30
2018-01-13T00:33:35.017Z,22.83
2018-01-13T00:36:02.634Z,19.57
2018-01-13T00:38:30.459Z,19.87
2018-01-13T00:40:58.060Z,19.57
2018-01-13T00:43:25.798Z,18.93
2018-01-13T00:45:54.166Z,18.37
2018-01-13T00:48:22.604Z,20.63
2018-01-13T00:50:50.222Z,19.13
2018-01-13T00:53:18.636Z,17.70
2018-01-13T00:55:46.321Z,19.90
2018-01-13T00:58:14.036Z,19.07
2018-01-13T01:00:41.643Z,19.10
2018-01-13T01:03:09.384Z,19.77
2018-01-13T01:05:37.007Z,19.40
2018-01-13T01:08:04.806Z,17.83
2018-01-13T01:10:32.404Z,19.83
2018-01-13T01:12:59.996Z,23.07
2018-01-13T01:15:27.602Z,20.53
2018-01-13T01:17:55.345Z,22.80
2018-01-13T01:20:23.063Z,23.07
2018-01-13T01:22:51.505Z,23.80
2018-01-13T01:25:19.208Z,22.40
2018-01-13T01:27:46.797Z,21.27
2018-01-13T01:30:14.433Z,21.27
2018-01-13T01:32:42.062Z,20.17
2018-01-13T01:35:09.832Z,19.63
2018-01-13T01:37:38.252Z,19.33
2018-01-13T01:40:05.954Z,20.77
2018-01-13T01:42:33.586Z,19.17
2018-01-13T01:45:01.206Z,21.57
2018-01-13T01:47:29.009Z,24.73
2018-01-13T01:49:56.618Z,19.80
2018-01-13T01:52:24.211Z,22.03
2018-01-13T01:54:51.914Z,21.50
2018-01-13T01:57:19.532Z,23.77
2018-01-13T01:59:47.212Z,21.17
2018-01-13T02:02:14.850Z,22.53
2018-01-13T02:04:42.630Z,22.80
2018-01-13T02:07:11.036Z,21.80
2018-01-13T02:09:38.660Z,21.13
2018-01-13T02:12:06.381Z,21.93
2018-01-13T02:14:34.771Z,22.70
2018-01-13T02:17:02.467Z,22.53
2018-01-13T02:19:30.332Z,21.40
2018-01-13T02:21:58.041Z,21.53
2018-01-13T02:24:26.622Z,19.50
2018-01-13T02:26:54.988Z,23.83
2018-01-13T02:29:22.574Z,20.93
2018-01-13T02:31:51.275Z,21.87
2018-01-13T02:34:19.060Z,19.03
2018-01-13T02:36:46.670Z,20.57
2018-01-13T02:39:15.198Z,18.50
2018-01-13T02:41:42.828Z,20.70
2018-01-13T02:44:10.468Z,19.60
2018-01-13T02:46:38.847Z,21.70
2018-01-13T02:49:07.222Z,22.10
2018-01-13T02:51:35.605Z,24.07
2018-01-13T02:54:04.073Z,21.47
2018-01-13T02:56:32.609Z,23.10
2018-01-13T02:59:01.189Z,22.00
2018-01-13T03:01:28.806Z,25.70
2018-01-13T03:03:57.172Z,23.07
2018-01-13T03:06:25.708Z,24.10
2018-01-13T03:08:53.398Z,23.27
2018-01-13T03:11:21.950Z,22.50
2018-01-13T03:13:50.393Z,21.83
2018-01-13T03:16:18.016Z,20.57
2018-01-13T03:18:46.467Z,20.80
2018-01-13T03:21:14.078Z,20.50
2018-01-13T03:23:42.638Z,20.57
2018-01-13T03:26:10.473Z,20.57
2018-01-13T03:28:38.065Z,20.70
2018-01-13T03:31:06.466Z,22.80
2018-01-13T03:33:34.875Z,23.30
2018-01-13T03:36:02.500Z,23.57
2018-01-13T03:38:31.133Z,22.50
2018-01-13T03:40:58.745Z,24.30
2018-01-13T03:43:27.101Z,25.60
2018-01-13T03:45:54.771Z,24.43
2018-01-13T03:48:23.167Z,23.70
2018-01-13T03:50:50.864Z,23.80
2018-01-13T03:53:18.474Z,25.60
2018-01-13T03:55:46.836Z,26.70
2018-01-13T03:58:14.691Z,26.50
2018-01-13T04:00:42.499Z,27.83
2018-01-13T04:03:10.160Z,27.87
2018-01-13T04:05:37.790Z,25.50
2018-01-13T04:08:06.142Z,23.80
2018-01-13T04:10:33.732Z,24.23
2018-01-13T04:13:02.124Z,24.00
2018-01-13T04:15:29.720Z,24.40
2018-01-13T04:17:57.480Z,23.73
2018-01-13T04:20:25.090Z,26.10
2018-01-13T04:22:53.470Z,25.93
2018-01-13T04:25:21.922Z,28.03
2018-01-13T04:27:49.520Z,26.30
2018-01-13T04:30:17.209Z,29.23
2018-01-13T04:32:44.977Z,25.80
2018-01-13T04:35:12.563Z,29.77
2018-01-13T04:37:40.178Z,25.97
2018-01-13T04:40:07.771Z,27.60
2018-01-13T04:42:35.566Z,27.40
2018-01-13T04:45:03.960Z,27.40
2018-01-13T04:47:31.624Z,26.80
2018-01-13T04:49:59.216Z,25.90
2018-01-13T04:52:26.975Z,29.37
2018-01-13T04:54:54.739Z,27.97
2018-01-13T04:57:22.558Z,25.20
2018-01-13T04:59:51.027Z,27.30
2018-01-13T05:02:19.563Z,28.03
2018-01-13T05:04:47.188Z,28.93
2018-01-13T05:07:15.476Z,28.40
2018-01-13T05:09:43.093Z,28.10
2018-01-13T05:12:11.457Z,28.83
2018-01-13T05:14:39.120Z,28.47
2018-01-13T05:17:06.957Z,25.27
2018-01-13T05:19:34.562Z,26.97
2018-01-13T05:22:03.050Z,27.37
2018-01-13T05:24:31.399Z,29.07
2018-01-13T05:26:59.000Z,29.80
2018-01-13T05:29:26.901Z,27.07
2018-01-13T05:31:54.500Z,26.80
2018-01-13T05:34:22.962Z,25.90
2018-01-13T05:36:50.587Z,26.60
2018-01-13T05:39:18.280Z,31.97
2018-01-13T05:41:46.018Z,28.63
2018-01-13T05:44:13.654Z,30.80
2018-01-13T05:46:41.371Z,28.63
2018-01-13T05:49:09.203Z,29.40
2018-01-13T05:51:36.812Z,26.70
2018-01-13T05:54:05.261Z,25.87
2018-01-13T05:56:32.967Z,29.03
2018-01-13T05:59:00.564Z,28.37
2018-01-13T06:01:28.425Z,29.00
2018-01-13T06:03:56.188Z,28.00
2018-01-13T06:06:23.951Z,28.53
2018-01-13T06:08:51.661Z,26.53
2018-01-13T06:11:20.094Z,29.47
2018-01-13T06:13:47.687Z,28.73
2018-01-13T06:16:15.309Z,26.53
2018-01-13T06:18:42.999Z,30.90
2018-01-13T06:21:10.646Z,28.37
2018-01-13T06:23:38.242Z,29.80
2018-01-13T06:26:06.636Z,26.13
2018-01-13T06:28:34.241Z,25.73
2018-01-13T06:31:01.836Z,27.93
2018-01-13T06:33:30.230Z,24.93
2018-01-13T06:35:57.896Z,25.70
2018-01-13T06:38:25.614Z,21.27
2018-01-13T06:40:53.345Z,21.90
2018-01-13T06:43:20.986Z,23.23
2018-01-13T06:45:48.620Z,25.03
2018-01-13T06:48:16.985Z,27.00
2018-01-13T06:50:45.524Z,24.27
2018-01-13T06:53:13.301Z,22.13
2018-01-13T06:55:40.949Z,21.30
2018-01-13T06:58:08.540Z,22.57
2018-01-13T07:00:36.242Z,21.43
2018-01-13T07:03:03.957Z,21.63
2018-01-13T07:05:31.656Z,22.40
2018-01-13T07:07:59.248Z,19.23
2018-01-13T07:10:26.915Z,17.67
2018-01-13T07:12:54.516Z,19.10
2018-01-13T07:15:22.915Z,18.03
2018-01-13T07:17:50.504Z,19.40
2018-01-13T07:20:18.313Z,16.93
2018-01-13T07:22:46.948Z,14.67
2018-01-13T07:25:14.566Z,16.43
2018-01-13T07:27:42.928Z,14.73
2018-01-13T07:30:11.466Z,15.27
2018-01-13T07:32:39.213Z,16.87
2018-01-13T07:35:06.852Z,17.73
2018-01-13T07:37:34.752Z,17.57
2018-01-13T07:40:02.380Z,16.13
2018-01-13T07:42:29.972Z,17.23
2018-01-13T07:44:57.837Z,19.37
2018-01-13T07:47:25.598Z,18.47
2018-01-13T07:49:53.361Z,17.37
2018-01-13T07:52:21.015Z,18.10
2018-01-13T07:54:49.090Z,16.50
2018-01-13T07:57:16.750Z,18.77
2018-01-13T07:59:44.351Z,18.27
2018-01-13T08:02:13.041Z,16.50
2018-01-13T08:04:41.394Z,20.00
2018-01-13T08:07:08.996Z,17.47
2018-01-13T08:09:36.998Z,18.60
2018-01-13T08:12:04.657Z,19.27
2018-01-13T08:14:32.252Z,17.10
2018-01-13T08:16:59.930Z,19.03
2018-01-13T08:19:28.354Z,17.17
2018-01-13T08:21:56.150Z,19.10
2018-01-13T08:24:23.930Z,19.03
2018-01-13T08:26:52.316Z,19.83
2018-01-13T08:29:20.692Z,19.57
2018-01-13T08:31:49.040Z,19.47
2018-01-13T08:34:16.672Z,20.40
2018-01-13T08:36:44.435Z,16.80
2018-01-13T08:39:12.254Z,19.27
2018-01-13T08:41:40.705Z,18.00
2018-01-13T08:44:08.341Z,21.20
2018-01-13T08:46:36.053Z,19.53
2018-01-13T08:49:04.446Z,17.90
2018-01-13T08:51:32.221Z,21.13
2018-01-13T08:53:59.931Z,20.63
2018-01-13T08:56:27.655Z,19.13
2018-01-13T08:58:55.246Z,17.87
2018-01-13T09:01:24.691Z,16.43
2018-01-13T09:03:52.351Z,17.83
2018-01-13T09:06:19.944Z,16.70
2018-01-13T09:08:47.585Z,16.00
2018-01-13T09:11:15.294Z,16.87
2018-01-13T09:13:43.708Z,16.10
2018-01-13T09:16:11.401Z,15.87
2018-01-13T09:18:38.994Z,16.70
2018-01-13T09:21:06.600Z,16.50
2018-01-13T09:23:34.382Z,15.03
2018-01-13T09:26:01.993Z,15.20
2018-01-13T09:28:30.402Z,15.63
2018-01-13T09:30:58.035Z,15.27
2018-01-13T09:33:26.382Z,17.57
2018-01-13T09:35:54.024Z,17.07
2018-01-13T09:38:21.624Z,20.37
2018-01-13T09:40:50.090Z,20.67
2018-01-13T09:43:17.716Z,20.90
2018-01-13T09:45:45.580Z,21.50
2018-01-13T09:48:13.241Z,19.20
2018-01-13T09:50:40.864Z,20.30
2018-01-13T09:53:08.660Z,22.70
2018-01-13T09:55:36.261Z,22.63
2018-01-13T09:58:04.660Z,21.23
2018-01-13T10:00:32.304Z,21.37
2018-01-13T10:03:00.788Z,21.40
2018-01-13T10:05:29.316Z,21.50
2018-01-13T10:07:56.985Z,20.20
2018-01-13T10:10:24.613Z,19.40
2018-01-13T10:12:52.201Z,20.10
2018-01-13T10:15:19.957Z,19.17
2018-01-13T10:17:47.671Z,19.20
2018-01-13T10:20:16.159Z,18.97
2018-01-13T10:22:43.852Z,19.80
2018-01-13T10:25:13.124Z,21.27
2018-01-13T10:27:40.920Z,21.03
2018-01-13T10:30:08.524Z,19.20
2018-01-13T10:32:37.162Z,19.17
2018-01-13T10:35:04.818Z,19.77
2018-01-13T10:37:32.422Z,19.37
2018-01-13T10:40:00.245Z,19.80
2018-01-13T10:42:27.830Z,19.23
2018-01-13T10:44:55.485Z,19.27
2018-01-13T10:47:23.140Z,18.37
2018-01-13T10:49:50.733Z,20.77
2018-01-13T10:52:19.097Z,21.23
2018-01-13T10:54:46.796Z,19.40
2018-01-13T10:57:14.519Z,19.87
2018-01-13T10:59:42.112Z,17.80
2018-01-13T11:02:10.025Z,17.23
2018-01-13T11:04:37.876Z,18.40
2018-01-13T11:07:05.498Z,16.30
2018-01-13T11:09:33.161Z,16.23
2018-01-13T11:12:00.771Z,17.97
2018-01-13T11:14:28.615Z,17.20
2018-01-13T11:16:56.325Z,18.00
2018-01-13T11:19:25.436Z,15.13
2018-01-13T11:21:53.233Z,15.90
2018-01-13T11:24:20.866Z,14.77
2018-01-13T11:26:48.577Z,14.97
2018-01-13T11:29:16.185Z,16.90
2018-01-13T11:31:43.842Z,14.13
2018-01-13T11:34:11.637Z,15.90
2018-01-13T11:36:39.327Z,14.53
2018-01-13T11:39:07.113Z,17.43
2018-01-13T11:41:35.579Z,19.33
2018-01-13T11:44:03.355Z,20.90
2018-01-13T11:46:31.810Z,19.13
2018-01-13T11:48:59.398Z,19.67
2018-01-13T11:51:27.802Z,20.83
2018-01-13T11:53:55.446Z,19.23
2018-01-13T11:56:23.113Z,17.40
2018-01-13T11:58:50.902Z,19.60
2018-01-13T12:01:18.612Z,17.17
2018-01-13T12:03:46.988Z,16.83
2018-01-13T12:06:15.521Z,19.10
2018-01-13T12:08:43.140Z,15.57
2018-01-13T12:11:12.275Z,18.30
2018-01-13T12:13:39.877Z,17.60
2018-01-13T12:16:08.238Z,17.80
2018-01-13T12:18:35.846Z,17.30
2018-01-13T12:21:03.443Z,18.13
2018-01-13T12:23:31.035Z,16.60
2018-01-13T12:25:59.422Z,17.93
2018-01-13T12:28:27.782Z,15.30
2018-01-13T12:30:55.430Z,18.37
2018-01-13T12:33:23.184Z,18.73
2018-01-13T12:35:50.774Z,17.30
2018-01-13T12:38:19.136Z,16.10
2018-01-13T12:40:46.745Z,18.20
2018-01-13T12:43:14.383Z,16.73
2018-01-13T12:45:41.978Z,18.57
2018-01-13T12:48:09.660Z,17.57
2018-01-13T12:50:38.275Z,18.10
2018-01-13T12:53:07.620Z,17.67
2018-01-13T12:55:35.250Z,17.80
2018-01-13T12:58:03.041Z,16.30
2018-01-13T13:00:30.644Z,16.10
2018-01-13T13:02:59.139Z,17.97
2018-01-13T13:05:26.770Z,17.47
2018-01-13T13:07:54.450Z,17.93
2018-01-13T13:10:22.867Z,18.20
2018-01-13T13:12:50.500Z,19.10
2018-01-13T13:15:18.114Z,18.70
2018-01-13T13:17:45.707Z,17.00
2018-01-13T13:20:14.080Z,19.40
2018-01-13T13:22:42.614Z,20.30
2018-01-13T13:25:10.222Z,18.37
2018-01-13T13:27:38.587Z,17.20
2018-01-13T13:30:06.341Z,19.70
2018-01-13T13:32:33.975Z,18.70
2018-01-13T13:35:01.706Z,15.17
2018-01-13T13:37:29.308Z,19.13
2018-01-13T13:39:57.143Z,19.50
2018-01-13T13:42:24.734Z,18.13
2018-01-13T13:44:52.434Z,20.60
2018-01-13T13:47:20.842Z,19.80
2018-01-13T13:49:48.449Z,18.43
2018-01-13T13:52:16.174Z,20.00
2018-01-13T13:54:43.759Z,19.50
2018-01-13T13:57:11.364Z,20.57
2018-01-13T13:59:39.017Z,19.03
2018-01-13T14:02:06.628Z,18.47
2018-01-13T14:04:34.281Z,18.57
2018-01-13T14:07:02.033Z,17.97
2018-01-13T14:09:29.625Z,18.17
2018-01-13T14:11:58.173Z,19.10
2018-01-13T14:14:25.788Z,23.37
2018-01-13T14:16:54.233Z,19.57
2018-01-13T14:19:21.862Z,18.37
2018-01-13T14:21:49.632Z,19.07
2018-01-13T14:24:17.498Z,17.80
2018-01-13T14:26:45.091Z,18.00
2018-01-13T14:29:12.923Z,19.73
2018-01-13T14:31:40.608Z,20.43
2018-01-13T14:34:08.199Z,19.70
2018-01-13T14:36:36.605Z,20.17
2018-01-13T14:39:04.383Z,19.27
2018-01-13T14:41:31.973Z,21.20
2018-01-13T14:43:59.730Z,21.63
2018-01-13T14:46:27.370Z,22.53
2018-01-13T14:48:54.954Z,21.43
2018-01-13T14:51:22.569Z,20.37
2018-01-13T14:53:50.477Z,19.70
2018-01-13T14:56:19.587Z,20.27
2018-01-13T14:58:48.121Z,22.53
2018-01-13T15:01:15.975Z,20.30
2018-01-13T15:03:43.645Z,21.13
2018-01-13T15:06:11.246Z,22.13
2018-01-13T15:08:38.883Z,20.87
2018-01-13T15:11:06.627Z,20.90
2018-01-13T15:13:34.267Z,21.60
2018-01-13T15:16:01.994Z,22.10
2018-01-13T15:18:30.400Z,20.07
2018-01-13T15:20:58.005Z,20.27
2018-01-13T15:23:25.747Z,20.70
2018-01-13T15:25:53.357Z,21.17
2018-01-13T15:28:21.890Z,21.27
2018-01-13T15:30:49.480Z,20.83
2018-01-13T15:33:17.864Z,20.17
2018-01-13T15:35:46.355Z,22.57
2018-01-13T15:38:14.756Z,22.70
2018-01-13T15:40:42.397Z,21.97
2018-01-13T15:43:10.846Z,22.43
2018-01-13T15:45:38.579Z,20.90
2018-01-13T15:48:06.343Z,21.07
2018-01-13T15:50:34.025Z,22.70
2018-01-13T15:53:01.873Z,19.50
2018-01-13T15:55:29.458Z,20.97
2018-01-13T15:57:57.162Z,21.27
2018-01-13T16:00:24.789Z,23.90
2018-01-13T16:02:53.231Z,20.07
2018-01-13T16:05:20.822Z,22.67
2018-01-13T16:07:48.436Z,23.17
2018-01-13T16:10:16.109Z,22.17
2018-01-13T16:12:43.707Z,21.07
2018-01-13T16:15:12.170Z,25.30
2018-01-13T16:17:40.007Z,23.13
2018-01-13T16:20:07.770Z,22.17
2018-01-13T16:22:35.532Z,22.47
2018-01-13T16:25:03.150Z,23.23
2018-01-13T16:27:30.757Z,19.77
2018-01-13T16:29:58.580Z,23.30
2018-01-13T16:32:26.377Z,21.63
2018-01-13T16:34:54.185Z,23.13
2018-01-13T16:37:22.562Z,23.70
2018-01-13T16:39:50.922Z,25.20
2018-01-13T16:42:18.637Z,21.03
2018-01-13T16:44:46.233Z,21.80
2018-01-13T16:47:13.863Z,21.90
2018-01-13T16:49:41.556Z,21.47
2018-01-13T16:52:10.068Z,20.47
2018-01-13T16:54:38.501Z,21.50
2018-01-13T16:57:06.177Z,20.87
2018-01-13T16:59:33.866Z,25.23
2018-01-13T17:02:02.359Z,22.17
2018-01-13T17:04:29.996Z,21.90
2018-01-13T17:06:58.350Z,20.77
2018-01-13T17:09:25.984Z,22.30
2018-01-13T17:11:53.754Z,21.90
2018-01-13T17:14:21.410Z,21.47
2018-01-13T17:16:49.008Z,22.57
2018-01-13T17:19:16.607Z,22.80
2018-01-13T17:21:44.313Z,21.70
2018-01-13T17:24:11.917Z,21.03
2018-01-13T17:26:39.536Z,20.40
2018-01-13T17:29:07.302Z,24.43
2018-01-13T17:31:35.093Z,22.97
2018-01-13T17:34:02.729Z,21.97
2018-01-13T17:36:30.340Z,21.47
2018-01-13T17:38:57.956Z,26.37
2018-01-13T17:41:26.324Z,21.07
2018-01-13T17:43:54.091Z,21.90
2018-01-13T17:46:21.694Z,20.67
2018-01-13T17:48:49.298Z,21.60
2018-01-13T17:51:16.925Z,23.73
2018-01-13T17:53:44.531Z,21.77
2018-01-13T17:56:12.998Z,21.77
2018-01-13T17:58:40.685Z,19.87
2018-01-13T18:01:08.494Z,22.03
2018-01-13T18:03:36.108Z,20.90
2018-01-13T18:06:04.838Z,20.57
2018-01-13T18:08:32.479Z,22.67
2018-01-13T18:11:00.213Z,20.17
2018-01-13T18:13:28.595Z,19.83
2018-01-13T18:15:56.250Z,21.50
2018-01-13T18:18:24.654Z,19.80
2018-01-13T18:20:52.304Z,20.13
2018-01-13T18:23:20.048Z,20.60
2018-01-13T18:25:48.442Z,20.93
2018-01-13T18:28:16.052Z,20.57
2018-01-13T18:30:43.664Z,20.90
2018-01-13T18:33:11.486Z,20.87
2018-01-13T18:35:39.124Z,23.13
2018-01-13T18:38:06.742Z,20.53
2018-01-13T18:40:34.331Z,20.07
2018-01-13T18:43:01.990Z,17.93
2018-01-13T18:45:29.757Z,19.80
2018-01-13T18:47:57.427Z,19.63
2018-01-13T18:50:25.181Z,18.83
2018-01-13T18:52:52.784Z,19.70
2018-01-13T18:55:21.465Z,20.37
2018-01-13T18:57:49.934Z,19.20
2018-01-13T19:00:17.636Z,21.60
2018-01-13T19:02:45.258Z,19.13
2018-01-13T19:05:12.873Z,20.50
2018-01-13T19:07:40.645Z,19.47
2018-01-13T19:10:08.386Z,19.83
2018-01-13T19:12:36.170Z,19.57
2018-01-13T19:15:03.797Z,18.50
2018-01-13T19:17:31.523Z,16.93
2018-01-13T19:19:59.406Z,19.10
2018-01-13T19:22:27.806Z,19.20
2018-01-13T19:24:55.440Z,19.00
2018-01-13T19:27:23.836Z,19.40
2018-01-13T19:29:51.588Z,18.57
2018-01-13T19:32:19.938Z,16.90
2018-01-13T19:34:47.700Z,17.57
2018-01-13T19:37:15.441Z,17.47
2018-01-13T19:39:43.048Z,18.33
2018-01-13T19:42:11.455Z,17.00
2018-01-13T19:44:39.185Z,18.53
2018-01-13T19:47:07.718Z,17.23
2018-01-13T19:49:35.328Z,17.93
2018-01-13T19:52:03.717Z,16.90
2018-01-13T19:54:31.334Z,14.13
2018-01-13T19:56:59.124Z,15.13
2018-01-13T19:59:27.491Z,16.17
2018-01-13T20:01:56.135Z,16.43
2018-01-13T20:04:23.768Z,16.90
2018-01-13T20:06:51.556Z,16.87
2018-01-13T20:09:19.143Z,17.20
2018-01-13T20:11:46.762Z,16.60
2018-01-13T20:14:14.378Z,16.20
2018-01-13T20:16:42.884Z,15.87
2018-01-13T20:19:10.484Z,15.47
2018-01-13T20:21:38.866Z,16.47
2018-01-13T20:24:06.770Z,15.93
2018-01-13T20:26:35.226Z,15.63
2018-01-13T20:29:02.938Z,16.17
2018-01-13T20:31:30.580Z,15.93
2018-01-13T20:33:58.380Z,16.90
2018-01-13T20:36:26.246Z,16.37
2018-01-13T20:38:53.845Z,16.73
2018-01-13T20:41:22.247Z,16.13
2018-01-13T20:43:49.940Z,16.60
2018-01-13T20:46:17.543Z,15.63
2018-01-13T20:48:46.064Z,16.23
2018-01-13T20:51:13.794Z,17.97
2018-01-13T20:53:42.188Z,14.33
2018-01-13T20:56:09.792Z,16.40
2018-01-13T20:58:37.414Z,15.07
2018-01-13T21:01:05.112Z,15.00
2018-01-13T21:03:32.909Z,16.57
2018-01-13T21:06:01.278Z,15.63
2018-01-13T21:08:29.696Z,14.00
2018-01-13T21:10:57.283Z,17.03
2018-01-13T21:13:25.093Z,15.73
2018-01-13T21:15:53.522Z,15.70
2018-01-13T21:18:21.148Z,17.27
2018-01-13T21:20:48.754Z,16.37
2018-01-13T21:23:16.500Z,16.93
2018-01-13T21:25:44.365Z,15.63
2018-01-13T21:28:23.183Z,14.40
2018-01-13T21:30:50.796Z,15.43
2018-01-13T21:33:19.165Z,16.50
2018-01-13T21:35:47.545Z,18.40
2018-01-13T21:38:15.927Z,15.97
2018-01-13T21:40:44.456Z,15.27
2018-01-13T21:43:12.219Z,16.13
2018-01-13T21:45:39.870Z,17.13
2018-01-13T21:48:07.492Z,15.60
2018-01-13T21:50:35.872Z,16.13
2018-01-13T21:53:04.349Z,15.23
2018-01-13T21:55:32.716Z,15.90
2018-01-13T21:58:01.147Z,15.00
2018-01-13T22:00:28.913Z,14.50
2018-01-13T22:02:56.529Z,15.03
2018-01-13T22:05:24.978Z,15.23
2018-01-13T22:07:52.613Z,15.13
2018-01-13T22:10:20.237Z,14.97
2018-01-13T22:12:47.836Z,16.03
2018-01-13T22:15:15.539Z,15.33
2018-01-13T22:17:43.967Z,17.20
2018-01-13T22:20:11.592Z,14.47
2018-01-13T22:22:39.288Z,15.80
2018-01-13T22:25:07.718Z,16.50
2018-01-13T22:27:36.381Z,13.97
2018-01-13T22:30:04.025Z,15.13
2018-01-13T22:32:31.693Z,14.03
2018-01-13T22:34:59.466Z,16.53
2018-01-13T22:37:27.277Z,16.80
2018-01-13T22:39:54.916Z,16.23
2018-01-13T22:42:23.438Z,16.10
2018-01-13T22:44:51.101Z,16.53
2018-01-13T22:47:18.862Z,15.40
2018-01-13T22:49:46.454Z,16.00
2018-01-13T22:52:14.158Z,15.33
2018-01-13T22:54:41.756Z,17.47
2018-01-13T22:57:09.502Z,14.83
2018-01-13T22:59:37.168Z,17.77
2018-01-13T23:02:04.851Z,16.47
2018-01-13T23:04:32.639Z,16.50
2018-01-13T23:07:00.991Z,15.53
2018-01-13T23:09:28.679Z,17.00
2018-01-13T23:11:57.314Z,15.00
2018-01-13T23:14:24.910Z,17.57
2018-01-13T23:16:53.354Z,14.73
2018-01-13T23:19:21.107Z,14.50
2018-01-13T23:21:48.869Z,19.23
2018-01-13T23:24:16.632Z,16.10
2018-01-13T23:26:45.242Z,16.33
2018-01-13T23:29:13.078Z,13.83
2018-01-13T23:31:40.841Z,16.40
2018-01-13T23:34:08.534Z,15.93
2018-01-13T23:36:36.272Z,16.50
2018-01-13T23:39:03.906Z,13.97
2018-01-13T23:41:31.542Z,15.73
2018-01-13T23:43:59.176Z,16.43
2018-01-13T23:46:26.818Z,14.93
2018-01-13T23:48:54.473Z,16.60
2018-01-13T23:51:22.076Z,15.90
2018-01-13T23:53:49.919Z,15.43
2018-01-13T23:56:17.643Z,14.47
2018-01-13T23:58:45.262Z,15.60
